createdAt,value
2022-12-13T00:01:34.367Z,99247.09
2022-12-13T00:04:05.070Z,99245.22
2022-12-13T00:06:34.311Z,99258.22
2022-12-13T00:09:02.848Z,99248.31
2022-12-13T00:11:30.717Z,99251.41
2022-12-13T00:13:59.276Z,99249.50
2022-12-13T00:16:28.449Z,99250.81
2022-12-13T00:18:59.484Z,99248.19
2022-12-13T00:21:30.966Z,99260.56
2022-12-13T00:24:00.107Z,99259.88
2022-12-13T00:26:30.175Z,99250.81
2022-12-13T00:29:00.597Z,99252.34
2022-12-13T00:34:22.504Z,99244.56
2022-12-13T00:36:50.779Z,99255.06
2022-12-13T00:39:19.347Z,99258.28
2022-12-13T00:41:47.735Z,99259.13
2022-12-13T00:44:15.980Z,99242.31
2022-12-13T00:46:44.236Z,99238.38
2022-12-13T00:49:13.424Z,99253.13
2022-12-13T00:51:42.662Z,99258.03
2022-12-13T00:54:11.497Z,99259.75
2022-12-13T00:56:39.685Z,99264.66
2022-12-13T00:59:07.537Z,99271.16
2022-12-13T01:01:37.540Z,99264.44
2022-12-13T01:04:06.809Z,99273.63
2022-12-13T01:06:37.770Z,99275.22
2022-12-13T01:09:12.356Z,99269.69
2022-12-13T01:11:40.276Z,99270.84
2022-12-13T01:14:08.150Z,99280.03
2022-12-13T01:16:36.180Z,99290.91
2022-12-13T01:19:04.350Z,99288.75
2022-12-13T01:21:32.216Z,99288.66
2022-12-13T01:24:04.363Z,99279.19
2022-12-13T01:26:34.965Z,99273.41
2022-12-13T01:29:05.285Z,99269.34
2022-12-13T01:31:33.560Z,99254.38
2022-12-13T01:34:10.668Z,99272.91
2022-12-13T01:36:39.227Z,99269.97
2022-12-13T01:39:14.397Z,99274.56
2022-12-13T01:41:45.552Z,99279.28
2022-12-13T01:44:50.739Z,99283.31
2022-12-13T01:47:23.775Z,99290.41
2022-12-13T01:49:53.158Z,99281.88
2022-12-13T01:52:22.610Z,99281.47
2022-12-13T01:54:54.182Z,99282.56
2022-12-13T01:57:24.441Z,99284.59
2022-12-13T01:59:53.722Z,99282.06
2022-12-13T02:02:22.073Z,99277.88
2022-12-13T02:04:54.371Z,99282.78
2022-12-13T02:07:27.566Z,99281.31
2022-12-13T02:09:58.757Z,99277.16
2022-12-13T02:12:31.256Z,99276.50
2022-12-13T02:15:01.622Z,99272.13
2022-12-13T02:17:44.499Z,99279.38
2022-12-13T02:20:44.287Z,99288.97
2022-12-13T02:23:57.826Z,99285.69
2022-12-13T02:26:44.160Z,99285.78
2022-12-13T02:29:41.158Z,99291.34
2022-12-13T02:32:17.348Z,99277.81
2022-12-13T02:34:51.545Z,99286.03
2022-12-13T02:37:26.315Z,99283.25
2022-12-13T02:40:01.730Z,99280.69
2022-12-13T02:42:34.902Z,99292.13
2022-12-13T02:45:08.352Z,99293.81
2022-12-13T02:47:41.532Z,99291.47
2022-12-13T02:50:14.948Z,99296.06
2022-12-13T02:52:46.625Z,99299.91
2022-12-13T02:55:17.709Z,99290.13
2022-12-13T02:57:48.704Z,99314.22
2022-12-13T03:00:19.157Z,99303.84
2022-12-13T03:03:01.910Z,99282.88
2022-12-13T03:05:57.772Z,99295.19
2022-12-13T03:08:30.590Z,99296.47
2022-12-13T03:11:05.919Z,99297.03
2022-12-13T03:13:41.987Z,99302.06
2022-12-13T03:16:15.910Z,99311.28
2022-12-13T03:18:54.006Z,99308.94
2022-12-13T03:21:23.176Z,99294.59
2022-12-13T03:23:51.022Z,99292.25
2022-12-13T03:26:22.488Z,99305.56
2022-12-13T03:28:50.610Z,99300.66
2022-12-13T03:31:18.741Z,99308.56
2022-12-13T03:33:47.059Z,99305.22
2022-12-13T03:36:18.780Z,99299.03
2022-12-13T03:38:47.017Z,99302.44
2022-12-13T03:41:17.964Z,99305.66
2022-12-13T03:43:46.323Z,99304.16
2022-12-13T03:46:14.229Z,99307.97
2022-12-13T03:48:42.096Z,99313.50
2022-12-13T03:51:09.924Z,99315.38
2022-12-13T03:53:39.084Z,99312.19
2022-12-13T03:56:07.378Z,99312.41
2022-12-13T03:58:37.900Z,99308.66
2022-12-13T04:01:07.713Z,99298.69
2022-12-13T04:03:35.865Z,99308.72
2022-12-13T04:06:04.635Z,99297.94
2022-12-13T04:08:33.219Z,99304.56
2022-12-13T04:11:23.651Z,99289.72
2022-12-13T04:13:50.908Z,99306.13
2022-12-13T04:16:18.848Z,99306.72
2022-12-13T04:18:46.857Z,99306.38
2022-12-13T04:21:14.970Z,99305.09
2022-12-13T04:23:42.799Z,99304.50
2022-12-13T04:26:12.053Z,99301.41
2022-12-13T04:28:39.984Z,99311.31
2022-12-13T04:31:07.960Z,99310.56
2022-12-13T04:33:35.852Z,99297.91
2022-12-13T04:36:04.195Z,99310.69
2022-12-13T04:38:32.073Z,99304.81
2022-12-13T04:41:14.225Z,99308.88
2022-12-13T04:43:43.466Z,99308.13
2022-12-13T04:46:12.742Z,99307.47
2022-12-13T04:48:40.731Z,99318.44
2022-12-13T04:51:08.656Z,99303.81
2022-12-13T04:53:36.506Z,99309.47
2022-12-13T04:56:05.477Z,99286.13
2022-12-13T04:58:33.343Z,99310.44
2022-12-13T05:01:02.965Z,99312.22
2022-12-13T05:03:30.893Z,99300.03
2022-12-13T05:05:58.699Z,99313.47
2022-12-13T05:08:26.569Z,99301.63
2022-12-13T05:10:55.563Z,99309.09
2022-12-13T05:13:23.342Z,99310.59
2022-12-13T05:15:56.085Z,99308.34
2022-12-13T05:18:25.782Z,99310.81
2022-12-13T05:20:54.396Z,99305.56
2022-12-13T05:23:25.013Z,99313.88
2022-12-13T05:25:53.165Z,99314.94
2022-12-13T05:28:27.572Z,99301.50
2022-12-13T05:30:57.554Z,99318.94
2022-12-13T05:33:27.211Z,99316.66
2022-12-13T05:36:00.507Z,99304.59
2022-12-13T05:38:32.310Z,99314.63
2022-12-13T05:41:00.944Z,99311.41
2022-12-13T05:43:42.077Z,99319.72
2022-12-13T05:46:10.684Z,99327.84
2022-12-13T05:48:40.075Z,99321.13
2022-12-13T05:51:09.794Z,99314.00
2022-12-13T05:53:40.006Z,99323.41
2022-12-13T05:56:10.198Z,99315.28
2022-12-13T05:58:38.993Z,99312.91
2022-12-13T06:01:08.730Z,99324.03
2022-12-13T06:03:36.937Z,99320.91
2022-12-13T06:06:08.591Z,99324.75
2022-12-13T06:08:37.249Z,99325.63
2022-12-13T06:11:10.662Z,99328.38
2022-12-13T06:13:43.246Z,99326.94
2022-12-13T06:16:21.921Z,99336.44
2022-12-13T06:18:55.757Z,99300.22
2022-12-13T06:21:40.715Z,99343.25
2022-12-13T06:24:11.811Z,99332.78
2022-12-13T06:26:39.560Z,99336.19
2022-12-13T06:29:07.612Z,99341.25
2022-12-13T06:31:35.503Z,99331.06
2022-12-13T06:34:14.835Z,99338.91
2022-12-13T06:36:44.691Z,99342.97
2022-12-13T06:39:12.559Z,99330.88
2022-12-13T06:41:40.472Z,99329.34
2022-12-13T06:44:08.917Z,99342.59
2022-12-13T06:46:37.055Z,99340.13
2022-12-13T06:49:08.978Z,99341.66
2022-12-13T06:51:36.798Z,99351.66
2022-12-13T06:54:06.067Z,99342.19
2022-12-13T06:56:33.858Z,99352.41
2022-12-13T06:59:02.387Z,99354.13
2022-12-13T07:01:37.895Z,99350.34
2022-12-13T07:04:29.594Z,99355.66
2022-12-13T07:06:54.746Z,99363.44
2022-12-13T07:09:24.018Z,99357.19
2022-12-13T07:11:52.662Z,99363.91
2022-12-13T07:14:21.051Z,99367.41
2022-12-13T07:16:48.926Z,99366.56
2022-12-13T07:19:23.782Z,99369.31
2022-12-13T07:21:52.686Z,99374.44
2022-12-13T07:24:20.732Z,99368.84
2022-12-13T07:26:49.943Z,99377.25
2022-12-13T07:29:22.476Z,99375.75
2022-12-13T07:31:50.804Z,99381.63
2022-12-13T07:34:18.740Z,99383.53
2022-12-13T07:36:46.842Z,99387.03
2022-12-13T07:39:14.671Z,99378.50
2022-12-13T07:41:42.576Z,99382.38
2022-12-13T07:44:11.764Z,99381.69
2022-12-13T07:46:39.805Z,99382.16
2022-12-13T07:49:07.770Z,99380.03
2022-12-13T07:51:36.318Z,99363.56
2022-12-13T07:54:06.255Z,99379.28
2022-12-13T07:56:34.831Z,99384.94
2022-12-13T07:59:02.784Z,99369.97
2022-12-13T08:01:34.531Z,99385.84
2022-12-13T08:04:03.004Z,99394.84
2022-12-13T08:06:31.443Z,99396.44
2022-12-13T08:08:59.411Z,99397.19
2022-12-13T08:11:27.251Z,99394.72
2022-12-13T08:13:55.232Z,99396.22
2022-12-13T08:16:26.685Z,99394.53
2022-12-13T08:19:02.697Z,99394.53
2022-12-13T08:24:24.580Z,99398.78
2022-12-13T08:26:55.380Z,99394.84
2022-12-13T08:29:33.477Z,99401.56
2022-12-13T08:32:04.366Z,99403.25
2022-12-13T08:34:33.590Z,99404.13
2022-12-13T08:37:03.581Z,99401.72
2022-12-13T08:39:34.654Z,99405.13
2022-12-13T08:42:15.214Z,99402.03
2022-12-13T08:44:47.006Z,99398.53
2022-12-13T08:47:23.203Z,99406.00
2022-12-13T08:49:54.090Z,99412.72
2022-12-13T08:52:23.236Z,99416.28
2022-12-13T08:54:51.356Z,99404.16
2022-12-13T08:57:19.193Z,99410.19
2022-12-13T08:59:47.051Z,99401.44
2022-12-13T09:02:15.352Z,99406.13
2022-12-13T09:04:43.481Z,99404.19
2022-12-13T09:07:12.886Z,99408.00
2022-12-13T09:09:40.702Z,99404.16
2022-12-13T09:12:10.695Z,99383.91
2022-12-13T09:14:45.727Z,99404.34
2022-12-13T09:17:24.526Z,99402.66
2022-12-13T09:19:58.210Z,99397.63
2022-12-13T09:22:33.398Z,99409.25
2022-12-13T09:25:03.009Z,99406.06
2022-12-13T09:27:39.516Z,99410.75
2022-12-13T09:30:12.148Z,99399.66
2022-12-13T09:32:40.606Z,99400.88
2022-12-13T09:35:09.390Z,99378.19
2022-12-13T09:37:44.155Z,99393.06
2022-12-13T09:40:25.682Z,99392.00
2022-12-13T09:43:13.686Z,99395.31
2022-12-13T09:45:46.761Z,99398.53
2022-12-13T09:48:22.707Z,99390.97
2022-12-13T09:51:15.944Z,99383.69
2022-12-13T09:53:42.601Z,99379.81
2022-12-13T09:56:13.066Z,99387.59
2022-12-13T09:58:40.960Z,99391.66
2022-12-13T10:01:08.862Z,99391.97
2022-12-13T10:03:36.774Z,99381.19
2022-12-13T10:06:22.802Z,99389.72
2022-12-13T10:08:58.364Z,99391.59
2022-12-13T10:11:31.850Z,99381.94
2022-12-13T10:14:03.695Z,99392.84
2022-12-13T10:16:43.649Z,99386.63
2022-12-13T10:19:29.036Z,99384.06
2022-12-13T10:22:02.081Z,99387.47
2022-12-13T10:24:49.443Z,99379.91
2022-12-13T10:27:19.611Z,99380.94
2022-12-13T10:29:59.825Z,99382.34
2022-12-13T10:32:27.735Z,99376.59
2022-12-13T10:34:56.278Z,99378.38
2022-12-13T10:37:31.635Z,99375.38
2022-12-13T10:40:00.915Z,99368.94
2022-12-13T10:42:33.880Z,99374.03
2022-12-13T10:45:23.603Z,99375.66
2022-12-13T10:47:52.246Z,99364.59
2022-12-13T10:50:26.342Z,99363.09
2022-12-13T10:52:55.873Z,99359.13
2022-12-13T10:55:30.636Z,99359.13
2022-12-13T10:58:02.357Z,99340.88
2022-12-13T11:00:38.762Z,99350.41
2022-12-13T11:03:08.219Z,99336.41
2022-12-13T11:05:38.232Z,99345.03
2022-12-13T11:08:17.558Z,99352.69
2022-12-13T11:10:47.782Z,99346.94
2022-12-13T11:13:26.237Z,99336.25
2022-12-13T11:15:57.786Z,99341.34
2022-12-13T11:18:28.127Z,99344.06
2022-12-13T11:20:58.351Z,99334.91
2022-12-13T11:23:30.717Z,99335.75
2022-12-13T11:26:05.922Z,99330.16
2022-12-13T11:28:57.616Z,99252.25
2022-12-13T11:31:32.763Z,99325.06
2022-12-13T11:34:10.242Z,99329.97
2022-12-13T11:36:48.522Z,99326.41
2022-12-13T11:39:22.288Z,99327.06
2022-12-13T11:41:56.154Z,99323.84
2022-12-13T11:44:30.423Z,99281.03
2022-12-13T11:47:01.092Z,99315.06
2022-12-13T11:49:39.344Z,99310.16
2022-12-13T11:52:16.404Z,99311.06
2022-12-13T11:54:51.530Z,99308.53
2022-12-13T11:57:33.313Z,99300.31
2022-12-13T12:00:13.168Z,99300.31
2022-12-13T12:02:48.546Z,99301.63
2022-12-13T12:05:26.454Z,99305.03
2022-12-13T12:08:43.430Z,99305.22
2022-12-13T12:10:50.255Z,99310.81
2022-12-13T12:13:25.434Z,99305.88
2022-12-13T12:16:01.661Z,99310.91
2022-12-13T12:18:29.710Z,99311.00
2022-12-13T12:21:07.663Z,99309.28
2022-12-13T12:23:52.434Z,99301.22
2022-12-13T12:26:27.294Z,99305.38
2022-12-13T12:29:21.228Z,99294.22
2022-12-13T12:31:54.989Z,99298.13
2022-12-13T12:34:34.785Z,99294.22
2022-12-13T12:37:12.967Z,99291.38
2022-12-13T12:40:02.241Z,99282.28
2022-12-13T12:43:13.952Z,99297.00
2022-12-13T12:45:59.683Z,99295.41
2022-12-13T12:48:56.990Z,99299.56
2022-12-13T12:51:34.072Z,99297.53
2022-12-13T12:54:20.022Z,99308.88
2022-12-13T12:56:56.475Z,99313.38
2022-12-13T12:59:34.474Z,99310.88
2022-12-13T13:02:12.672Z,99315.38
2022-12-13T13:04:47.016Z,99315.56
2022-12-13T13:07:22.608Z,99320.94
2022-12-13T13:09:55.230Z,99323.84
2022-12-13T13:12:30.353Z,99327.59
2022-12-13T13:14:59.095Z,99332.94
2022-12-13T13:17:48.136Z,99335.00
2022-12-13T13:20:26.426Z,99329.41
2022-12-13T13:23:17.519Z,99332.03
2022-12-13T13:28:44.783Z,99321.91
2022-12-13T13:31:12.658Z,99327.97
2022-12-13T13:33:47.230Z,99328.91
2022-12-13T13:36:47.217Z,99324.19
2022-12-13T13:39:17.047Z,99325.22
2022-12-13T13:42:09.110Z,99322.94
2022-12-13T13:45:03.143Z,99323.69
2022-12-13T13:47:42.842Z,99323.69
2022-12-13T13:50:41.461Z,99324.63
2022-12-13T13:53:46.694Z,99332.22
2022-12-13T13:56:36.677Z,99323.44
2022-12-13T13:59:24.762Z,99330.09
2022-12-13T14:02:06.387Z,99333.63
2022-12-13T14:05:16.921Z,99336.28
2022-12-13T14:08:29.552Z,99331.34
2022-12-13T14:11:22.151Z,99329.47
2022-12-13T14:14:27.031Z,99335.91
2022-12-13T14:17:32.810Z,99330.00
2022-12-13T14:20:39.528Z,99322.75
2022-12-13T14:23:13.739Z,99335.09
2022-12-13T14:26:07.169Z,99339.69
2022-12-13T14:28:46.130Z,99329.41
2022-12-13T14:31:21.618Z,99315.47
2022-12-13T14:33:52.123Z,99329.66
2022-12-13T14:36:28.650Z,99328.97
2022-12-13T14:39:03.498Z,99332.34
2022-12-13T14:41:32.799Z,99333.19
2022-12-13T14:44:16.434Z,99326.59
2022-12-13T14:46:55.676Z,99332.41
2022-12-13T14:49:25.999Z,99326.59
2022-12-13T14:52:01.453Z,99333.31
2022-12-13T14:54:46.038Z,99341.03
2022-12-13T14:57:20.553Z,99337.13
2022-12-13T14:59:50.725Z,99345.88
2022-12-13T15:02:30.477Z,99346.91
2022-12-13T15:05:02.079Z,99347.22
2022-12-13T15:07:33.836Z,99349.28
2022-12-13T15:10:04.713Z,99346.44
2022-12-13T15:12:34.150Z,99352.69
2022-12-13T15:15:04.127Z,99356.47
2022-12-13T15:17:35.809Z,99358.63
2022-12-13T15:20:25.386Z,99353.25
2022-12-13T15:23:01.988Z,99360.22
2022-12-13T15:25:40.563Z,99362.28
2022-12-13T15:28:18.196Z,99362.69
2022-12-13T15:30:49.859Z,99366.03
2022-12-13T15:33:20.739Z,99363.19
2022-12-13T15:35:49.677Z,99359.56
2022-12-13T15:38:29.071Z,99364.84
2022-12-13T15:40:57.471Z,99368.06
2022-12-13T15:43:36.335Z,99350.06
2022-12-13T15:46:12.628Z,99369.56
2022-12-13T15:48:48.313Z,99374.47
2022-12-13T15:51:30.347Z,99379.38
2022-12-13T15:54:05.177Z,99377.50
2022-12-13T15:56:36.472Z,99377.41
2022-12-13T15:59:26.446Z,99381.91
2022-12-13T16:01:58.655Z,99376.66
2022-12-13T16:04:29.286Z,99381.19
2022-12-13T16:07:03.228Z,99379.06
2022-12-13T16:09:38.145Z,99376.72
2022-12-13T16:12:07.995Z,99378.88
2022-12-13T16:14:49.255Z,99378.88
2022-12-13T16:17:24.587Z,99383.56
2022-12-13T16:19:53.558Z,99379.78
2022-12-13T16:22:23.993Z,99381.91
2022-12-13T16:24:53.060Z,99380.19
2022-12-13T16:27:21.546Z,99385.75
2022-12-13T16:29:50.867Z,99383.84
2022-12-13T16:32:18.858Z,99380.41
2022-12-13T16:34:46.791Z,99366.69
2022-12-13T16:37:26.478Z,99382.47
2022-12-13T16:39:56.628Z,99377.03
2022-12-13T16:42:26.149Z,99379.66
2022-12-13T16:45:32.303Z,99388.00
2022-12-13T16:47:49.316Z,99386.09
2022-12-13T16:50:20.125Z,99391.44
2022-12-13T16:52:48.173Z,99392.41
2022-12-13T16:55:16.818Z,99395.59
2022-12-13T16:57:56.419Z,99397.94
2022-12-13T17:00:26.779Z,99402.84
2022-12-13T17:02:54.946Z,99393.28
2022-12-13T17:05:23.656Z,99403.91
2022-12-13T17:07:51.531Z,99399.13
2022-12-13T17:10:20.259Z,99399.34
2022-12-13T17:12:48.127Z,99392.63
2022-12-13T17:15:17.098Z,99392.41
2022-12-13T17:17:47.710Z,99398.16
2022-12-13T17:20:17.256Z,99398.91
2022-12-13T17:22:46.538Z,99398.25
2022-12-13T17:25:14.965Z,99401.34
2022-12-13T17:27:43.098Z,99398.41
2022-12-13T17:30:15.486Z,99401.16
2022-12-13T17:32:43.491Z,99405.00
2022-12-13T17:35:17.888Z,99405.75
2022-12-13T17:37:46.603Z,99408.75
2022-12-13T17:40:14.439Z,99402.03
2022-12-13T17:42:42.405Z,99399.06
2022-12-13T17:45:11.076Z,99391.88
2022-12-13T17:47:39.698Z,99394.56
2022-12-13T17:50:08.920Z,99393.59
2022-12-13T17:52:39.099Z,99395.19
2022-12-13T17:55:07.511Z,99395.63
2022-12-13T17:57:35.823Z,99381.88
2022-12-13T18:00:04.914Z,99401.38
2022-12-13T18:02:40.741Z,99410.31
2022-12-13T18:05:17.628Z,99402.88
2022-12-13T18:07:50.638Z,99403.09
2022-12-13T18:10:19.051Z,99403.09
2022-12-13T18:12:46.835Z,99403.59
2022-12-13T18:15:14.939Z,99403.72
2022-12-13T18:18:10.055Z,99404.03
2022-12-13T18:20:30.917Z,99407.22
2022-12-13T18:23:00.087Z,99407.97
2022-12-13T18:25:28.139Z,99403.50
2022-12-13T18:28:00.676Z,99403.69
2022-12-13T18:30:31.058Z,99407.84
2022-12-13T18:32:58.894Z,99407.38
2022-12-13T18:35:26.808Z,99405.34
2022-12-13T18:37:54.605Z,99407.94
2022-12-13T18:40:23.849Z,99404.88
2022-12-13T18:42:52.116Z,99407.50
2022-12-13T18:45:20.493Z,99408.75
2022-12-13T18:47:48.996Z,99394.88
2022-12-13T18:50:16.964Z,99394.25
2022-12-13T18:52:44.879Z,99395.88
2022-12-13T18:55:13.191Z,99395.81
2022-12-13T18:57:42.855Z,99401.97
2022-12-13T19:00:12.801Z,99405.41
2022-12-13T19:02:41.676Z,99404.94
2022-12-13T19:05:10.509Z,99391.81
2022-12-13T19:07:38.394Z,99400.44
2022-12-13T19:10:06.820Z,99400.66
2022-12-13T19:12:34.997Z,99405.16
2022-12-13T19:15:06.092Z,99405.38
2022-12-13T19:17:34.461Z,99410.41
2022-12-13T19:20:02.626Z,99413.59
2022-12-13T19:22:30.800Z,99411.25
2022-12-13T19:24:58.896Z,99414.31
2022-12-13T19:27:26.808Z,99426.56
2022-12-13T19:29:54.731Z,99428.28
2022-12-13T19:32:23.956Z,99425.84
2022-12-13T19:34:51.837Z,99430.00
2022-12-13T19:37:19.660Z,99431.13
2022-12-13T19:39:47.436Z,99437.09
2022-12-13T19:42:15.382Z,99436.25
2022-12-13T19:44:43.157Z,99440.38
2022-12-13T19:47:11.047Z,99433.88
2022-12-13T19:49:41.441Z,99432.28
2022-12-13T19:52:09.328Z,99439.19
2022-12-13T19:54:37.206Z,99436.41
2022-12-13T19:57:07.366Z,99438.09
2022-12-13T19:59:35.564Z,99430.78
2022-12-13T20:02:05.522Z,99425.16
2022-12-13T20:04:33.551Z,99419.06
2022-12-13T20:07:03.361Z,99427.38
2022-12-13T20:09:31.285Z,99430.78
2022-12-13T20:11:59.106Z,99431.38
2022-12-13T20:14:27.368Z,99432.38
2022-12-13T20:16:55.338Z,99433.41
2022-12-13T20:19:24.012Z,99429.75
2022-12-13T20:21:56.698Z,99433.41
2022-12-13T20:24:26.410Z,99421.84
2022-12-13T20:26:54.301Z,99423.06
2022-12-13T20:29:22.951Z,99422.03
2022-12-13T20:31:51.587Z,99421.38
2022-12-13T20:34:21.025Z,99398.13
2022-12-13T20:36:49.282Z,99418.78
2022-12-13T20:39:17.113Z,99421.63
2022-12-13T20:41:46.303Z,99431.19
2022-12-13T20:44:14.607Z,99424.47
2022-12-13T20:46:42.559Z,99422.53
2022-12-13T20:49:11.396Z,99414.56
2022-12-13T20:51:41.519Z,99409.19
2022-12-13T20:54:09.769Z,99409.94
2022-12-13T20:56:39.682Z,99394.59
2022-12-13T20:59:11.562Z,99393.91
2022-12-13T21:01:40.633Z,99384.16
2022-12-13T21:04:10.420Z,99400.03
2022-12-13T21:06:40.702Z,99409.13
2022-12-13T21:09:10.018Z,99411.13
2022-12-13T21:11:40.668Z,99412.75
2022-12-13T21:14:18.782Z,99406.06
2022-12-13T21:16:50.323Z,99401.16
2022-12-13T21:19:21.531Z,99355.28
2022-12-13T21:21:50.796Z,99398.47
2022-12-13T21:24:20.210Z,99401.66
2022-12-13T21:26:48.432Z,99405.19
2022-12-13T21:29:17.862Z,99408.00
2022-12-13T21:31:51.472Z,99404.63
2022-12-13T21:34:20.084Z,99410.84
2022-12-13T21:36:50.421Z,99413.78
2022-12-13T21:39:20.005Z,99423.44
2022-12-13T21:41:48.459Z,99420.78
2022-12-13T21:44:18.910Z,99420.03
2022-12-13T21:47:11.191Z,99419.78
2022-12-13T21:49:35.096Z,99409.41
2022-12-13T21:52:03.046Z,99419.78
2022-12-13T21:54:30.824Z,99404.66
2022-12-13T21:57:16.314Z,99421.50
2022-12-13T21:59:45.576Z,99417.09
2022-12-13T22:02:16.365Z,99417.56
2022-12-13T22:04:46.255Z,99397.31
2022-12-13T22:07:16.159Z,99415.25
2022-12-13T22:09:45.162Z,99415.72
2022-12-13T22:12:21.080Z,99408.38
2022-12-13T22:14:51.281Z,99410.69
2022-12-13T22:17:28.256Z,99413.13
2022-12-13T22:19:59.454Z,99388.69
2022-12-13T22:22:27.573Z,99396.72
2022-12-13T22:24:55.389Z,99397.94
2022-12-13T22:27:25.437Z,99397.22
2022-12-13T22:29:56.854Z,99388.69
2022-12-13T22:32:26.978Z,99394.56
2022-12-13T22:34:55.162Z,99384.78
2022-12-13T22:37:23.070Z,99388.47
2022-12-13T22:39:51.159Z,99385.28
2022-12-13T22:42:20.066Z,99380.03
2022-12-13T22:44:48.182Z,99376.06
2022-12-13T22:47:17.474Z,99371.06
2022-12-13T22:49:48.828Z,99363.22
2022-12-13T22:52:17.223Z,99364.94
2022-12-13T22:54:45.068Z,99355.41
2022-12-13T22:57:12.992Z,99355.91
2022-12-13T22:59:41.166Z,99358.75
2022-12-13T23:02:09.979Z,99351.31
2022-12-13T23:04:39.397Z,99346.41
2022-12-13T23:07:07.283Z,99343.31
2022-12-13T23:09:35.132Z,99335.00
2022-12-13T23:12:20.559Z,99337.31
2022-12-13T23:14:48.367Z,99345.91
2022-12-13T23:17:16.126Z,99337.97
2022-12-13T23:19:50.078Z,99331.88
2022-12-13T23:22:19.882Z,99334.56
2022-12-13T23:24:47.717Z,99330.88
2022-12-13T23:27:15.817Z,99334.19
2022-12-13T23:29:43.652Z,99318.47
2022-12-13T23:32:11.645Z,99328.47
2022-12-13T23:34:39.435Z,99327.25
2022-12-13T23:37:08.670Z,99319.94
2022-12-13T23:39:36.459Z,99301.38
2022-12-13T23:42:04.498Z,99324.34
2022-12-13T23:44:32.275Z,99309.19
2022-12-13T23:47:00.096Z,99327.78
2022-12-13T23:49:28.040Z,99302.13
2022-12-13T23:51:56.016Z,99314.81
2022-12-13T23:54:25.202Z,99313.34
2022-12-13T23:56:53.010Z,99310.56
2022-12-13T23:59:20.902Z,99309.25
